Hovedside
METAR-TAF:

METAR-TAF

Lufthavner :

Kramfors lufthavn

Kramfors, Sverige

breddegrad: 63-03N, lengdegrad: 017-46E, høyde over havet: 10 m

Gjeldene værobservasjon

Denne rapporten ble laget for 27 minutter siden, klokken 18:20 UTC
Vind 2 kt fra skiftende retning
Temperatur -4°C
Luftfuktighet 93%
Trykk 1038 hPa
Sikt 10 km eller mer
Overskyet i en høyde av 600 ft

METAR: ESNK 191820Z VRB02KT 9999 OVC006 M04/M05 Q1038

Tid: 19:47 (18:47 UTC)

Varsel

Denne rapporten ble laget for 1 time og 17 minutter siden, klokken 17:30 UTC
Varsel gyldig fra 19. klokken 18 UTC til 19. klokken 20 UTC
Vind 4 kt fra Nord
Sikt 10 km eller mer
Brutte skyer i en høyde av 700 ft
Sannsynlighet 40%
fra 19. klokken 18 UTC til 19. klokken 20 UTC
Brutte skyer i en høyde av 400 ft

TAF: ESNK 191730Z 1918/1920 35004KT 9999 BKN007 PROB40 1918/1920 BKN004

Værobservasjoner og værvarsel for over 4000 flyplasser (METAR- og TAF-rapporter).

Tilgjengelige stasjoner er representert av de røde og gule prikkene på kartet.

Hold musepekeren over prikken for å se navnet på stasjonen.

Klikk så for å se værobservasjoner og -varsler.

For å forandre kartet kan du klikke på den grønne knappen med svart kryss for å zoome inn, på den grønne knappen med strek for å zoome ut, eller på de grønne pilene for å se tilstøtende kart.


METAR-TAF: